createdAt,value
2022-10-24T00:01:22.346Z,2.00
2022-10-24T00:03:49.773Z,2.05
2022-10-24T00:06:17.769Z,2.42
2022-10-24T00:08:45.503Z,2.08
2022-10-24T00:11:14.702Z,2.10
2022-10-24T00:16:09.844Z,2.13
2022-10-24T00:18:37.097Z,2.38
2022-10-24T00:21:04.680Z,2.00
2022-10-24T00:23:31.948Z,2.25
2022-10-24T00:26:04.197Z,2.20
2022-10-24T00:28:32.338Z,2.10
2022-10-24T00:30:59.587Z,2.10
2022-10-24T00:33:26.986Z,2.40
2022-10-24T00:35:54.504Z,2.50
2022-10-24T00:38:21.814Z,2.17
2022-10-24T00:40:49.058Z,2.40
2022-10-24T00:43:22.219Z,2.50
2022-10-24T00:45:56.750Z,2.45
2022-10-24T00:48:26.816Z,2.55
2022-10-24T00:50:58.929Z,2.05
2022-10-24T00:53:26.874Z,2.20
2022-10-24T00:55:56.675Z,2.00
2022-10-24T00:58:26.482Z,2.33
2022-10-24T01:00:53.788Z,2.10
2022-10-24T01:03:21.097Z,2.10
2022-10-24T01:06:23.210Z,2.30
2022-10-24T01:09:10.725Z,2.42
2022-10-24T01:11:46.015Z,2.10
2022-10-24T01:14:19.150Z,2.00
2022-10-24T01:16:49.841Z,1.95
2022-10-24T01:19:35.299Z,2.40
2022-10-24T01:22:15.475Z,2.10
2022-10-24T01:25:13.608Z,2.08
2022-10-24T01:28:14.745Z,1.95
2022-10-24T01:30:50.072Z,2.10
2022-10-24T01:33:31.029Z,1.95
2022-10-24T01:36:33.041Z,2.25
2022-10-24T01:39:04.082Z,1.80
2022-10-24T01:41:33.156Z,2.03
2022-10-24T01:44:05.054Z,2.00
2022-10-24T01:46:37.374Z,2.13
2022-10-24T01:49:13.482Z,1.73
2022-10-24T01:51:41.710Z,1.70
2022-10-24T01:54:09.890Z,1.88
2022-10-24T01:56:37.358Z,1.90
2022-10-24T01:59:29.689Z,2.00
2022-10-24T02:01:59.941Z,2.00
2022-10-24T02:04:29.539Z,2.35
2022-10-24T02:06:57.812Z,2.00
2022-10-24T02:09:25.266Z,1.80
2022-10-24T02:11:56.318Z,2.10
2022-10-24T02:14:33.974Z,1.77
2022-10-24T02:17:02.523Z,2.10
2022-10-24T02:19:31.300Z,1.95
2022-10-24T02:22:13.656Z,1.90
2022-10-24T02:25:09.187Z,2.10
2022-10-24T02:27:48.853Z,1.90
2022-10-24T02:30:24.721Z,2.22
2022-10-24T02:32:57.076Z,2.53
2022-10-24T02:35:30.100Z,2.38
2022-10-24T02:38:17.655Z,2.20
2022-10-24T02:40:45.287Z,1.95
2022-10-24T02:43:14.045Z,2.03
2022-10-24T02:45:41.448Z,2.22
2022-10-24T02:48:12.426Z,2.10
2022-10-24T02:50:41.063Z,2.00
2022-10-24T02:53:12.875Z,2.22
2022-10-24T02:55:40.203Z,1.90
2022-10-24T02:58:07.615Z,2.20
2022-10-24T03:00:34.954Z,1.80
2022-10-24T03:03:01.824Z,1.73
2022-10-24T03:05:29.037Z,1.83
2022-10-24T03:07:56.306Z,2.00
2022-10-24T03:10:23.593Z,2.17
2022-10-24T03:12:50.892Z,1.92
2022-10-24T03:15:18.492Z,2.08
2022-10-24T03:17:49.102Z,1.90
2022-10-24T03:20:17.025Z,1.90
2022-10-24T03:22:44.243Z,1.90
2022-10-24T03:25:11.908Z,1.80
2022-10-24T03:27:39.501Z,1.75
2022-10-24T03:30:06.981Z,1.60
2022-10-24T03:32:34.559Z,1.60
2022-10-24T03:35:02.252Z,1.70
2022-10-24T03:37:29.676Z,2.08
2022-10-24T03:39:56.931Z,1.73
2022-10-24T03:42:24.181Z,1.65
2022-10-24T03:44:51.396Z,1.65
2022-10-24T03:47:19.572Z,2.00
2022-10-24T03:49:46.868Z,1.58
2022-10-24T03:52:14.116Z,1.45
2022-10-24T03:54:41.302Z,1.60
2022-10-24T03:57:10.017Z,1.42
2022-10-24T03:59:37.650Z,1.40
2022-10-24T04:02:05.824Z,1.50
2022-10-24T04:04:33.511Z,1.48
2022-10-24T04:07:00.928Z,1.55
2022-10-24T04:09:28.512Z,1.35
2022-10-24T04:11:55.832Z,1.60
2022-10-24T04:14:23.084Z,1.23
2022-10-24T04:16:50.439Z,1.20
2022-10-24T04:19:18.311Z,1.30
2022-10-24T04:21:47.960Z,1.55
2022-10-24T04:24:15.509Z,1.30
2022-10-24T04:26:43.090Z,1.20
2022-10-24T04:29:10.303Z,1.25
2022-10-24T04:31:37.533Z,1.20
2022-10-24T04:34:05.587Z,1.58
2022-10-24T04:36:33.644Z,1.10
2022-10-24T04:41:28.102Z,1.30
2022-10-24T04:43:55.355Z,1.20
2022-10-24T04:46:22.590Z,1.30
2022-10-24T04:48:49.803Z,1.20
2022-10-24T04:51:19.984Z,1.30
2022-10-24T04:53:49.842Z,1.00
2022-10-24T04:56:17.698Z,1.00
2022-10-24T04:58:45.124Z,1.10
2022-10-24T05:01:12.420Z,1.20
2022-10-24T05:03:39.655Z,1.20
2022-10-24T05:06:06.907Z,1.25
2022-10-24T05:08:34.132Z,1.10
2022-10-24T05:11:01.416Z,1.10
2022-10-24T05:13:31.755Z,1.10
2022-10-24T05:16:02.102Z,1.25
2022-10-24T05:18:29.293Z,1.10
2022-10-24T05:20:57.763Z,1.20
2022-10-24T05:23:25.180Z,1.30
2022-10-24T05:25:52.489Z,1.40
2022-10-24T05:28:19.771Z,1.30
2022-10-24T05:30:47.130Z,1.20
2022-10-24T05:33:14.358Z,1.20
2022-10-24T05:35:41.737Z,0.93
2022-10-24T05:38:09.042Z,1.38
2022-10-24T05:40:36.237Z,1.15
2022-10-24T05:43:03.693Z,1.33
2022-10-24T05:45:30.989Z,1.27
2022-10-24T05:47:58.242Z,1.10
2022-10-24T05:50:26.981Z,1.13
2022-10-24T05:52:54.654Z,1.52
2022-10-24T05:55:21.847Z,1.55
2022-10-24T05:57:49.130Z,1.10
2022-10-24T06:00:17.807Z,1.30
2022-10-24T06:05:17.762Z,1.20
2022-10-24T06:07:45.249Z,1.10
2022-10-24T06:10:13.086Z,1.65
2022-10-24T06:12:40.602Z,1.55
2022-10-24T06:15:08.746Z,1.10
2022-10-24T06:17:36.481Z,1.20
2022-10-24T06:20:03.973Z,1.13
2022-10-24T06:22:31.215Z,1.17
2022-10-24T06:24:58.481Z,1.10
2022-10-24T06:27:25.709Z,1.67
2022-10-24T06:29:53.039Z,1.30
2022-10-24T06:32:20.246Z,1.25
2022-10-24T06:34:47.479Z,1.00
2022-10-24T06:37:14.712Z,1.10
2022-10-24T06:39:41.965Z,1.35
2022-10-24T06:42:09.196Z,1.00
2022-10-24T06:44:36.736Z,1.10
2022-10-24T06:47:03.993Z,1.15
2022-10-24T06:49:31.212Z,1.17
2022-10-24T06:52:00.942Z,1.35
2022-10-24T06:54:30.259Z,1.02
2022-10-24T06:56:58.081Z,1.27
2022-10-24T06:59:25.372Z,1.20
2022-10-24T07:01:52.796Z,1.10
2022-10-24T07:04:20.171Z,1.40
2022-10-24T07:06:47.424Z,1.50
2022-10-24T07:09:15.652Z,1.20
2022-10-24T07:11:43.214Z,1.10
2022-10-24T07:14:10.533Z,1.00
2022-10-24T07:16:38.300Z,1.85
2022-10-24T07:19:06.542Z,1.30
2022-10-24T07:21:34.214Z,1.58
2022-10-24T07:24:01.702Z,1.40
2022-10-24T07:26:29.583Z,1.67
2022-10-24T07:31:29.167Z,1.48
2022-10-24T07:33:56.505Z,1.30
2022-10-24T07:36:25.063Z,1.23
2022-10-24T07:38:54.668Z,1.38
2022-10-24T07:41:22.057Z,1.35
2022-10-24T07:43:49.319Z,1.30
2022-10-24T07:46:18.009Z,1.20
2022-10-24T07:48:45.296Z,1.20
2022-10-24T07:51:14.065Z,1.10
2022-10-24T07:53:41.843Z,1.42
2022-10-24T07:56:10.545Z,1.40
2022-10-24T07:58:37.886Z,1.20
2022-10-24T08:01:17.828Z,1.20
2022-10-24T08:03:45.558Z,1.38
2022-10-24T08:06:15.637Z,1.20
2022-10-24T08:08:43.267Z,1.17
2022-10-24T08:11:11.999Z,1.30
2022-10-24T08:13:39.580Z,1.35
2022-10-24T08:16:07.865Z,1.00
2022-10-24T08:18:39.574Z,1.05
2022-10-24T08:21:10.479Z,1.10
2022-10-24T08:23:41.795Z,1.70
2022-10-24T08:26:11.809Z,1.33
2022-10-24T08:28:39.079Z,1.02
2022-10-24T08:31:08.997Z,1.05
2022-10-24T08:33:36.219Z,1.23
2022-10-24T08:36:33.816Z,1.20
2022-10-24T08:39:01.439Z,1.52
2022-10-24T08:41:39.227Z,1.20
2022-10-24T08:44:37.834Z,1.17
2022-10-24T08:47:30.507Z,0.93
2022-10-24T08:50:04.411Z,1.20
2022-10-24T08:52:48.491Z,1.00
2022-10-24T08:55:30.933Z,1.23
2022-10-24T08:58:05.397Z,1.15
2022-10-24T09:00:38.333Z,0.82
2022-10-24T09:03:17.528Z,1.15
2022-10-24T09:05:51.606Z,1.25
2022-10-24T09:08:50.091Z,1.10
2022-10-24T09:11:32.055Z,1.38
2022-10-24T09:14:07.197Z,1.27
2022-10-24T09:16:35.825Z,1.10
2022-10-24T09:19:03.184Z,1.30
2022-10-24T09:21:30.530Z,1.30
2022-10-24T09:23:57.784Z,1.50
2022-10-24T09:26:29.910Z,1.20
2022-10-24T09:28:57.217Z,1.50
2022-10-24T09:31:26.469Z,1.50
2022-10-24T09:33:54.179Z,1.33
2022-10-24T09:36:24.934Z,1.30
2022-10-24T09:38:52.557Z,1.30
2022-10-24T09:41:25.027Z,1.50
2022-10-24T09:43:53.350Z,1.15
2022-10-24T09:46:25.369Z,1.70
2022-10-24T09:48:56.438Z,1.58
2022-10-24T09:51:34.056Z,1.20
2022-10-24T09:54:07.607Z,1.38
2022-10-24T09:56:40.589Z,1.90
2022-10-24T09:59:42.691Z,1.42
2022-10-24T10:02:34.290Z,1.50
2022-10-24T10:05:04.256Z,1.50
2022-10-24T10:07:33.115Z,1.63
2022-10-24T10:10:18.056Z,1.80
2022-10-24T10:12:48.188Z,1.35
2022-10-24T10:15:35.227Z,1.50
2022-10-24T10:18:25.438Z,1.63
2022-10-24T10:21:05.236Z,1.40
2022-10-24T10:23:36.362Z,1.40
2022-10-24T10:26:03.610Z,1.75
2022-10-24T10:28:30.870Z,1.50
2022-10-24T10:31:00.320Z,1.45
2022-10-24T10:34:00.726Z,1.50
2022-10-24T10:36:34.645Z,1.60
2022-10-24T10:39:23.516Z,1.40
2022-10-24T10:42:03.167Z,1.30
2022-10-24T10:45:08.821Z,1.30
2022-10-24T10:47:36.083Z,1.83
2022-10-24T10:50:22.137Z,1.35
2022-10-24T10:52:51.186Z,1.35
2022-10-24T10:55:32.286Z,1.58
2022-10-24T10:58:15.186Z,1.50
2022-10-24T11:00:42.482Z,1.27
2022-10-24T11:03:37.609Z,1.65
2022-10-24T11:06:23.211Z,1.35
2022-10-24T11:09:06.868Z,1.20
2022-10-24T11:11:41.069Z,1.25
2022-10-24T11:14:43.509Z,1.13
2022-10-24T11:17:23.054Z,1.10
2022-10-24T11:20:01.676Z,1.25
2022-10-24T11:22:54.130Z,1.30
2022-10-24T11:25:46.892Z,1.10
2022-10-24T11:28:19.857Z,1.13
2022-10-24T11:30:47.074Z,1.20
2022-10-24T11:33:25.834Z,1.38
2022-10-24T11:36:11.381Z,1.17
2022-10-24T11:39:02.059Z,1.33
2022-10-24T11:42:08.306Z,1.23
2022-10-24T11:44:55.731Z,1.60
2022-10-24T11:47:25.623Z,1.73
2022-10-24T11:50:03.408Z,1.42
2022-10-24T11:52:35.308Z,1.60
2022-10-24T11:55:15.416Z,1.52
2022-10-24T11:57:45.737Z,1.55
2022-10-24T12:00:37.189Z,1.75
2022-10-24T12:03:04.466Z,1.70
2022-10-24T12:05:31.715Z,1.52
2022-10-24T12:08:23.078Z,1.85
2022-10-24T12:10:59.429Z,1.35
2022-10-24T12:13:38.780Z,1.67
2022-10-24T12:16:36.630Z,2.38
2022-10-24T12:19:10.403Z,1.33
2022-10-24T12:21:55.937Z,1.60
2022-10-24T12:24:31.145Z,1.70
2022-10-24T12:27:02.738Z,1.75
2022-10-24T12:29:34.534Z,1.40
2022-10-24T12:32:38.029Z,1.30
2022-10-24T12:35:31.779Z,1.60
2022-10-24T12:37:59.236Z,1.60
2022-10-24T12:40:55.761Z,1.70
2022-10-24T12:43:39.147Z,1.60
2022-10-24T12:46:21.763Z,1.40
2022-10-24T12:48:59.401Z,1.77
2022-10-24T12:51:27.483Z,1.58
2022-10-24T12:54:00.857Z,1.25
2022-10-24T12:56:28.118Z,1.48
2022-10-24T12:59:19.629Z,1.38
2022-10-24T13:01:49.010Z,1.25
2022-10-24T13:04:41.082Z,1.30
2022-10-24T13:07:33.677Z,1.40
2022-10-24T13:10:06.659Z,1.58
2022-10-24T13:15:48.951Z,1.50
2022-10-24T13:18:16.125Z,1.50
2022-10-24T13:20:45.004Z,1.50
2022-10-24T13:23:24.973Z,1.30
2022-10-24T13:25:58.304Z,1.90
2022-10-24T13:28:25.541Z,1.65
2022-10-24T13:31:15.656Z,1.65
2022-10-24T13:33:44.657Z,1.70
2022-10-24T13:36:16.412Z,1.92
2022-10-24T13:38:46.636Z,1.48
2022-10-24T13:41:25.278Z,1.70
2022-10-24T13:43:55.374Z,1.90
2022-10-24T13:46:37.883Z,2.03
2022-10-24T13:49:06.915Z,1.70
2022-10-24T13:51:43.235Z,1.80
2022-10-24T13:54:32.090Z,2.42
2022-10-24T13:57:01.997Z,1.88
2022-10-24T13:59:37.678Z,1.83
2022-10-24T14:02:28.378Z,2.17
2022-10-24T14:04:59.028Z,1.73
2022-10-24T14:07:29.112Z,1.60
2022-10-24T14:10:02.387Z,2.05
2022-10-24T14:12:32.382Z,1.58
2022-10-24T14:15:02.650Z,1.55
2022-10-24T14:17:34.552Z,1.60
2022-10-24T14:20:11.127Z,1.77
2022-10-24T14:22:40.416Z,1.83
2022-10-24T14:25:36.190Z,2.42
2022-10-24T14:28:14.030Z,2.10
2022-10-24T14:30:41.257Z,1.85
2022-10-24T14:33:21.198Z,2.15
2022-10-24T14:35:52.282Z,1.52
2022-10-24T14:38:23.045Z,1.90
2022-10-24T14:41:01.255Z,2.10
2022-10-24T14:43:34.244Z,1.50
2022-10-24T14:46:13.344Z,1.70
2022-10-24T14:48:43.094Z,2.20
2022-10-24T14:51:19.209Z,1.83
2022-10-24T14:53:48.590Z,1.60
2022-10-24T14:56:30.916Z,1.80
2022-10-24T14:58:59.894Z,1.63
2022-10-24T15:01:27.574Z,1.70
2022-10-24T15:04:05.586Z,1.58
2022-10-24T15:06:44.065Z,1.98
2022-10-24T15:09:11.295Z,1.90
2022-10-24T15:11:40.851Z,1.90
2022-10-24T15:14:30.169Z,1.60
2022-10-24T15:19:29.539Z,1.60
2022-10-24T15:21:56.888Z,1.90
2022-10-24T15:24:26.630Z,1.80
2022-10-24T15:26:53.982Z,1.70
2022-10-24T15:29:22.283Z,1.92
2022-10-24T15:31:50.783Z,1.30
2022-10-24T15:34:20.291Z,1.40
2022-10-24T15:36:48.297Z,1.40
2022-10-24T15:39:18.217Z,1.50
2022-10-24T15:41:45.614Z,1.42
2022-10-24T15:44:20.700Z,1.40
2022-10-24T15:46:48.478Z,1.42
2022-10-24T15:49:16.039Z,1.80
2022-10-24T15:51:49.013Z,1.40
2022-10-24T15:54:18.090Z,1.42
2022-10-24T15:56:45.370Z,1.52
2022-10-24T15:59:12.615Z,1.50
2022-10-24T16:01:54.567Z,1.33
2022-10-24T16:04:22.130Z,1.30
2022-10-24T16:06:50.676Z,1.30
2022-10-24T16:09:20.638Z,1.50
2022-10-24T16:11:48.051Z,1.60
2022-10-24T16:14:17.404Z,1.50
2022-10-24T16:16:44.772Z,1.20
2022-10-24T16:19:12.236Z,1.10
2022-10-24T16:21:40.196Z,1.35
2022-10-24T16:24:08.273Z,1.35
2022-10-24T16:26:35.818Z,1.40
2022-10-24T16:29:03.055Z,1.20
2022-10-24T16:31:30.278Z,1.20
2022-10-24T16:33:58.406Z,1.60
2022-10-24T16:36:26.085Z,1.33
2022-10-24T16:38:53.859Z,1.40
2022-10-24T16:41:23.242Z,1.35
2022-10-24T16:43:53.333Z,1.40
2022-10-24T16:46:21.289Z,1.50
2022-10-24T16:48:48.837Z,1.38
2022-10-24T16:51:23.777Z,1.52
2022-10-24T16:53:51.402Z,1.40
2022-10-24T16:56:18.682Z,1.40
2022-10-24T16:58:45.897Z,1.45
2022-10-24T17:01:15.007Z,1.80
2022-10-24T17:06:12.380Z,1.60
2022-10-24T17:08:39.832Z,1.65
2022-10-24T17:11:25.749Z,1.65
2022-10-24T17:13:54.703Z,1.85
2022-10-24T17:16:21.959Z,1.60
2022-10-24T17:19:05.031Z,1.90
2022-10-24T17:21:32.692Z,1.60
2022-10-24T17:24:00.017Z,1.25
2022-10-24T17:26:27.977Z,1.52
2022-10-24T17:28:54.984Z,1.50
2022-10-24T17:31:22.271Z,1.77
2022-10-24T17:33:49.591Z,1.95
2022-10-24T17:36:22.405Z,1.98
2022-10-24T17:39:10.183Z,1.60
2022-10-24T17:41:40.907Z,2.05
2022-10-24T17:44:14.788Z,1.60
2022-10-24T17:46:42.064Z,1.63
2022-10-24T17:49:10.790Z,1.60
2022-10-24T17:51:40.918Z,1.63
2022-10-24T17:54:10.704Z,1.60
2022-10-24T17:56:37.986Z,1.90
2022-10-24T17:59:05.259Z,1.95
2022-10-24T18:01:32.611Z,1.70
2022-10-24T18:03:59.890Z,1.73
2022-10-24T18:06:27.119Z,2.17
2022-10-24T18:08:54.993Z,2.00
2022-10-24T18:11:22.612Z,1.98
2022-10-24T18:13:49.857Z,1.85
2022-10-24T18:16:18.093Z,1.73
2022-10-24T18:18:46.205Z,1.77
2022-10-24T18:21:16.582Z,1.98
2022-10-24T18:23:43.865Z,2.00
2022-10-24T18:26:15.761Z,1.77
2022-10-24T18:28:44.345Z,2.05
2022-10-24T18:31:16.514Z,2.03
2022-10-24T18:33:44.173Z,2.42
2022-10-24T18:36:11.473Z,2.50
2022-10-24T18:38:42.403Z,1.98
2022-10-24T18:41:28.573Z,1.90
2022-10-24T18:43:57.104Z,2.20
2022-10-24T18:46:24.749Z,1.83
2022-10-24T18:48:52.306Z,2.00
2022-10-24T18:51:42.089Z,2.20
2022-10-24T18:54:14.821Z,1.92
2022-10-24T18:56:42.718Z,2.03
2022-10-24T18:59:19.563Z,2.20
2022-10-24T19:01:58.751Z,2.38
2022-10-24T19:04:26.854Z,1.85
2022-10-24T19:06:55.940Z,2.30
2022-10-24T19:09:24.609Z,1.77
2022-10-24T19:11:52.571Z,1.80
2022-10-24T19:14:21.043Z,1.90
2022-10-24T19:16:49.344Z,2.20
2022-10-24T19:19:26.766Z,2.20
2022-10-24T19:21:53.750Z,1.90
2022-10-24T19:24:21.100Z,2.05
2022-10-24T19:26:49.853Z,2.35
2022-10-24T19:29:17.215Z,2.35
2022-10-24T19:31:44.522Z,2.05
2022-10-24T19:34:11.852Z,1.95
2022-10-24T19:36:39.171Z,2.20
2022-10-24T19:39:06.643Z,1.98
2022-10-24T19:41:34.164Z,2.15
2022-10-24T19:44:01.364Z,2.30
2022-10-24T19:46:28.649Z,2.40
2022-10-24T19:48:56.110Z,2.13
2022-10-24T19:51:25.160Z,2.13
2022-10-24T19:56:25.252Z,2.15
2022-10-24T19:58:52.870Z,1.98
2022-10-24T20:01:22.789Z,3.03
2022-10-24T20:03:51.125Z,2.35
2022-10-24T20:06:19.571Z,2.25
2022-10-24T20:08:47.723Z,2.05
2022-10-24T20:11:20.432Z,2.20
2022-10-24T20:13:48.135Z,2.60
2022-10-24T20:16:15.464Z,2.33
2022-10-24T20:18:43.642Z,2.55
2022-10-24T20:21:12.806Z,2.22
2022-10-24T20:23:42.862Z,2.40
2022-10-24T20:26:12.848Z,2.42
2022-10-24T20:28:43.303Z,2.75
2022-10-24T20:31:28.014Z,2.70
2022-10-24T20:34:00.078Z,2.72
2022-10-24T20:36:31.179Z,2.70
2022-10-24T20:39:01.318Z,2.53
2022-10-24T20:41:29.293Z,2.60
2022-10-24T20:43:56.744Z,2.67
2022-10-24T20:46:24.012Z,2.80
2022-10-24T20:48:51.368Z,2.28
2022-10-24T20:51:19.664Z,2.90
2022-10-24T20:53:47.174Z,3.28
2022-10-24T20:56:22.280Z,2.60
2022-10-24T20:58:50.830Z,2.58
2022-10-24T21:01:23.552Z,2.70
2022-10-24T21:03:51.576Z,2.67
2022-10-24T21:06:25.982Z,2.50
2022-10-24T21:08:55.314Z,2.58
2022-10-24T21:11:25.980Z,2.85
2022-10-24T21:14:02.063Z,3.00
2022-10-24T21:16:29.596Z,2.60
2022-10-24T21:18:57.395Z,2.63
2022-10-24T21:21:24.705Z,2.67
2022-10-24T21:23:52.724Z,2.53
2022-10-24T21:26:20.512Z,2.83
2022-10-24T21:28:48.232Z,3.30
2022-10-24T21:31:16.730Z,3.08
2022-10-24T21:33:44.467Z,2.85
2022-10-24T21:36:13.535Z,3.00
2022-10-24T21:41:09.747Z,3.05
2022-10-24T21:43:39.175Z,2.95
2022-10-24T21:46:14.501Z,3.20
2022-10-24T21:48:42.639Z,3.00
2022-10-24T21:51:16.080Z,3.03
2022-10-24T21:53:51.397Z,2.92
2022-10-24T21:56:19.789Z,2.83
2022-10-24T21:58:50.881Z,2.83
2022-10-24T22:01:20.464Z,2.80
2022-10-24T22:03:47.951Z,2.78
2022-10-24T22:06:17.584Z,3.13
2022-10-24T22:08:45.960Z,2.78
2022-10-24T22:11:14.949Z,3.30
2022-10-24T22:13:42.668Z,2.92
2022-10-24T22:16:11.168Z,2.90
2022-10-24T22:18:38.487Z,2.95
2022-10-24T22:21:07.627Z,3.08
2022-10-24T22:23:37.116Z,2.72
2022-10-24T22:26:04.686Z,2.95
2022-10-24T22:28:31.982Z,2.80
2022-10-24T22:30:59.303Z,2.80
2022-10-24T22:33:36.421Z,3.22
2022-10-24T22:36:13.703Z,2.70
2022-10-24T22:38:40.881Z,2.85
2022-10-24T22:41:10.457Z,2.75
2022-10-24T22:43:38.048Z,3.20
2022-10-24T22:46:20.801Z,2.40
2022-10-24T22:48:49.985Z,2.90
2022-10-24T22:53:44.871Z,2.53
2022-10-24T22:56:38.506Z,2.90
2022-10-24T22:59:05.851Z,2.88
2022-10-24T23:01:56.355Z,2.88
2022-10-24T23:04:44.268Z,3.15
2022-10-24T23:07:30.975Z,2.40
2022-10-24T23:09:58.389Z,2.40
2022-10-24T23:12:25.835Z,2.53
2022-10-24T23:14:53.478Z,2.80
2022-10-24T23:17:28.549Z,2.78
2022-10-24T23:19:56.812Z,3.38
2022-10-24T23:22:24.197Z,2.70
2022-10-24T23:24:52.121Z,2.60
2022-10-24T23:27:19.338Z,2.42
2022-10-24T23:29:47.121Z,2.60
2022-10-24T23:32:19.612Z,2.67
2022-10-24T23:34:47.197Z,2.47
2022-10-24T23:37:32.074Z,2.90
2022-10-24T23:40:00.420Z,2.65
2022-10-24T23:42:28.083Z,2.45
2022-10-24T23:44:55.267Z,2.67
2022-10-24T23:47:50.261Z,2.60
2022-10-24T23:53:00.703Z,2.60
2022-10-24T23:55:28.108Z,2.85
2022-10-24T23:57:55.345Z,2.85
